createdAt,value
2022-10-17T00:00:43.234Z,24.29
2022-10-17T00:02:44.896Z,24.34
2022-10-17T00:04:46.493Z,24.27
2022-10-17T00:06:48.073Z,25.34
2022-10-17T00:08:49.713Z,25.19
2022-10-17T00:11:00.266Z,24.68
2022-10-17T00:13:02.119Z,24.56
2022-10-17T00:15:07.808Z,24.12
2022-10-17T00:17:09.481Z,24.49
2022-10-17T00:19:11.099Z,24.29
2022-10-17T00:21:17.558Z,25.13
2022-10-17T00:23:19.627Z,24.96
2022-10-17T00:25:21.283Z,25.42
2022-10-17T00:27:22.936Z,25.42
2022-10-17T00:29:24.551Z,25.52
2022-10-17T00:31:26.205Z,25.48
2022-10-17T00:33:29.435Z,25.15
2022-10-17T00:35:31.251Z,25.60
2022-10-17T00:37:33.582Z,25.21
2022-10-17T00:39:35.237Z,25.20
2022-10-17T00:41:36.852Z,24.55
2022-10-17T00:44:31.913Z,24.66
2022-10-17T00:46:38.441Z,25.38
2022-10-17T00:48:40.261Z,24.42
2022-10-17T00:50:44.377Z,24.59
2022-10-17T00:52:48.277Z,25.01
2022-10-17T00:54:54.662Z,25.64
2022-10-17T00:56:56.788Z,25.62
2022-10-17T00:58:58.957Z,25.09
2022-10-17T01:01:02.977Z,25.14
2022-10-17T01:03:05.030Z,24.89
2022-10-17T01:05:07.270Z,25.09
2022-10-17T01:07:10.031Z,25.40
2022-10-17T01:09:11.662Z,25.56
2022-10-17T01:11:37.991Z,25.40
2022-10-17T01:13:48.740Z,25.52
2022-10-17T01:16:07.857Z,25.41
2022-10-17T01:18:46.102Z,25.21
2022-10-17T01:21:24.796Z,25.27
2022-10-17T01:23:41.349Z,25.30
2022-10-17T01:25:45.689Z,25.59
2022-10-17T01:27:56.803Z,25.14
2022-10-17T01:30:16.645Z,25.50
2022-10-17T01:32:20.647Z,25.29
2022-10-17T01:34:33.517Z,25.20
2022-10-17T01:36:58.978Z,25.19
2022-10-17T01:39:30.233Z,25.61
2022-10-17T01:41:40.274Z,24.59
2022-10-17T01:43:51.352Z,24.69
2022-10-17T01:46:02.761Z,24.66
2022-10-17T01:48:11.601Z,24.00
2022-10-17T01:50:23.555Z,24.71
2022-10-17T01:52:31.339Z,24.52
2022-10-17T01:54:41.657Z,24.28
2022-10-17T01:56:45.939Z,24.46
2022-10-17T01:59:00.540Z,24.16
2022-10-17T02:01:06.774Z,23.97
2022-10-17T02:03:13.335Z,23.95
2022-10-17T02:05:17.460Z,24.47
2022-10-17T02:07:19.109Z,23.60
2022-10-17T02:09:26.260Z,23.55
2022-10-17T02:11:28.433Z,23.93
2022-10-17T02:13:32.698Z,24.29
2022-10-17T02:16:03.631Z,24.37
2022-10-17T02:18:33.751Z,24.47
2022-10-17T02:20:50.701Z,24.68
2022-10-17T02:22:57.040Z,24.46
2022-10-17T02:25:01.426Z,24.78
2022-10-17T02:27:12.591Z,25.27
2022-10-17T02:29:18.947Z,24.30
2022-10-17T02:31:25.447Z,24.24
2022-10-17T02:33:36.458Z,24.87
2022-10-17T02:35:43.497Z,24.60
2022-10-17T02:37:47.428Z,25.24
2022-10-17T02:39:51.135Z,25.75
2022-10-17T02:41:55.526Z,24.63
2022-10-17T02:44:00.196Z,25.34
2022-10-17T02:46:05.582Z,24.53
2022-10-17T02:48:18.284Z,25.43
2022-10-17T02:52:57.244Z,24.77
2022-10-17T02:55:05.414Z,24.57
2022-10-17T02:57:19.064Z,24.27
2022-10-17T02:59:23.038Z,24.72
2022-10-17T03:01:25.572Z,24.33
2022-10-17T03:03:30.138Z,24.61
2022-10-17T03:05:31.698Z,24.85
2022-10-17T03:07:33.393Z,25.12
2022-10-17T03:09:35.036Z,24.98
2022-10-17T03:11:36.661Z,24.70
2022-10-17T03:13:39.856Z,24.55
2022-10-17T03:15:41.764Z,22.40
2022-10-17T03:17:43.389Z,23.08
2022-10-17T03:19:44.988Z,23.48
2022-10-17T03:21:46.592Z,23.31
2022-10-17T03:23:48.272Z,23.84
2022-10-17T03:25:49.878Z,24.12
2022-10-17T03:27:51.964Z,23.65
2022-10-17T03:29:53.538Z,23.76
2022-10-17T03:31:55.149Z,23.71
2022-10-17T03:33:56.812Z,23.53
2022-10-17T03:35:58.403Z,23.26
2022-10-17T03:38:00.109Z,23.82
2022-10-17T03:40:01.787Z,24.14
2022-10-17T03:42:03.430Z,24.59
2022-10-17T03:44:05.159Z,24.57
2022-10-17T03:46:07.589Z,24.85
2022-10-17T03:48:09.259Z,24.76
2022-10-17T03:50:10.890Z,24.82
2022-10-17T03:52:13.597Z,23.61
2022-10-17T03:54:15.208Z,24.05
2022-10-17T03:56:24.502Z,23.54
2022-10-17T03:58:26.095Z,23.94
2022-10-17T04:00:27.675Z,23.98
2022-10-17T04:02:29.396Z,23.92
2022-10-17T04:04:31.029Z,23.73
2022-10-17T04:06:32.853Z,24.45
2022-10-17T04:08:35.081Z,24.59
2022-10-17T04:10:36.699Z,24.16
2022-10-17T04:12:38.476Z,23.45
2022-10-17T04:14:40.263Z,24.28
2022-10-17T04:16:41.885Z,24.56
2022-10-17T04:18:43.949Z,24.55
2022-10-17T04:20:45.547Z,23.08
2022-10-17T04:22:47.133Z,23.43
2022-10-17T04:24:49.070Z,24.38
2022-10-17T04:26:51.323Z,22.82
2022-10-17T04:28:53.223Z,23.55
2022-10-17T04:31:09.846Z,23.72
2022-10-17T04:33:11.469Z,23.66
2022-10-17T04:35:13.086Z,23.44
2022-10-17T04:37:14.717Z,23.35
2022-10-17T04:39:16.316Z,24.44
2022-10-17T04:41:19.055Z,23.47
2022-10-17T04:43:20.808Z,23.06
2022-10-17T04:45:22.389Z,23.52
2022-10-17T04:47:24.027Z,24.08
2022-10-17T04:49:25.663Z,24.34
2022-10-17T04:51:27.357Z,24.11
2022-10-17T04:53:32.205Z,24.39
2022-10-17T04:55:38.583Z,24.63
2022-10-17T04:57:40.176Z,24.17
2022-10-17T04:59:41.788Z,23.25
2022-10-17T05:01:43.461Z,21.68
2022-10-17T05:03:45.532Z,23.36
2022-10-17T05:05:47.579Z,23.02
2022-10-17T05:07:49.178Z,23.64
2022-10-17T05:09:50.766Z,23.85
2022-10-17T05:11:52.450Z,23.74
2022-10-17T05:13:57.155Z,22.38
2022-10-17T05:16:02.312Z,21.79
2022-10-17T05:18:05.629Z,22.53
2022-10-17T05:20:08.383Z,23.32
2022-10-17T05:22:09.980Z,22.66
2022-10-17T05:24:14.453Z,22.99
2022-10-17T05:26:16.310Z,22.70
2022-10-17T05:28:17.885Z,22.31
2022-10-17T05:30:19.591Z,22.89
2022-10-17T05:32:21.162Z,23.09
2022-10-17T05:34:22.787Z,23.20
2022-10-17T05:36:24.476Z,23.10
2022-10-17T05:38:26.914Z,23.41
2022-10-17T05:40:28.527Z,23.10
2022-10-17T05:42:30.328Z,23.30
2022-10-17T05:44:32.124Z,23.44
2022-10-17T05:46:33.735Z,23.39
2022-10-17T05:48:35.419Z,23.22
2022-10-17T05:50:37.078Z,23.47
2022-10-17T05:52:38.685Z,23.93
2022-10-17T05:54:40.306Z,23.58
2022-10-17T05:56:41.910Z,24.02
2022-10-17T05:58:50.444Z,24.18
2022-10-17T06:00:58.320Z,24.45
2022-10-17T06:02:59.874Z,24.36
2022-10-17T06:05:01.495Z,24.66
2022-10-17T06:07:03.121Z,24.41
2022-10-17T06:09:04.860Z,24.34
2022-10-17T06:11:09.932Z,24.46
2022-10-17T06:13:12.230Z,24.51
2022-10-17T06:15:13.930Z,24.67
2022-10-17T06:17:16.420Z,23.75
2022-10-17T06:19:18.221Z,23.41
2022-10-17T06:21:24.987Z,23.65
2022-10-17T06:23:28.043Z,23.76
2022-10-17T06:25:33.794Z,23.83
2022-10-17T06:27:35.424Z,23.36
2022-10-17T06:29:37.014Z,22.48
2022-10-17T06:31:38.782Z,23.07
2022-10-17T06:33:40.671Z,23.38
2022-10-17T06:35:42.319Z,24.41
2022-10-17T06:37:43.984Z,24.48
2022-10-17T06:39:45.671Z,24.59
2022-10-17T06:41:47.341Z,23.86
2022-10-17T06:43:48.976Z,20.42
2022-10-17T06:45:50.667Z,22.39
2022-10-17T06:47:52.412Z,22.65
2022-10-17T06:49:54.041Z,22.12
2022-10-17T06:51:55.720Z,22.94
2022-10-17T06:53:58.642Z,22.77
2022-10-17T06:56:04.569Z,24.04
2022-10-17T06:58:06.221Z,24.60
2022-10-17T07:00:08.332Z,24.78
2022-10-17T07:02:11.432Z,24.23
2022-10-17T07:04:13.066Z,21.78
2022-10-17T07:06:14.706Z,23.66
2022-10-17T07:08:17.074Z,24.26
2022-10-17T07:10:18.815Z,24.06
2022-10-17T07:12:20.398Z,22.39
2022-10-17T07:14:22.193Z,24.07
2022-10-17T07:16:23.886Z,23.63
2022-10-17T07:18:25.458Z,22.90
2022-10-17T07:20:27.151Z,23.20
2022-10-17T07:22:28.913Z,23.32
2022-10-17T07:24:30.528Z,24.07
2022-10-17T07:26:32.155Z,24.59
2022-10-17T07:28:35.811Z,24.75
2022-10-17T07:30:37.514Z,24.77
2022-10-17T07:32:39.117Z,23.55
2022-10-17T07:34:40.718Z,24.41
2022-10-17T07:36:42.419Z,24.48
2022-10-17T07:38:44.143Z,24.00
2022-10-17T07:40:45.707Z,23.76
2022-10-17T07:42:47.349Z,24.37
2022-10-17T07:44:49.022Z,22.95
2022-10-17T07:46:50.687Z,23.33
2022-10-17T07:48:52.357Z,24.15
2022-10-17T07:50:53.933Z,24.45
2022-10-17T07:52:55.528Z,24.65
2022-10-17T07:54:57.182Z,24.38
2022-10-17T07:56:58.964Z,24.77
2022-10-17T07:59:02.679Z,23.66
2022-10-17T08:01:16.205Z,24.72
2022-10-17T08:03:17.947Z,24.02
2022-10-17T08:05:19.547Z,24.16
2022-10-17T08:07:25.325Z,24.64
2022-10-17T08:09:28.573Z,24.62
2022-10-17T08:11:30.289Z,24.24
2022-10-17T08:13:32.297Z,24.16
2022-10-17T08:15:33.982Z,24.48
2022-10-17T08:17:36.878Z,23.96
2022-10-17T08:19:40.640Z,24.39
2022-10-17T08:21:43.692Z,23.98
2022-10-17T08:23:45.283Z,23.91
2022-10-17T08:25:47.036Z,23.63
2022-10-17T08:27:48.918Z,23.88
2022-10-17T08:29:54.649Z,24.24
2022-10-17T08:32:00.914Z,23.96
2022-10-17T08:34:03.481Z,24.54
2022-10-17T08:36:06.200Z,23.98
2022-10-17T08:38:10.001Z,23.90
2022-10-17T08:40:25.814Z,23.92
2022-10-17T08:42:51.247Z,24.40
2022-10-17T08:45:07.676Z,23.24
2022-10-17T08:47:15.644Z,23.11
2022-10-17T08:49:46.973Z,24.62
2022-10-17T08:52:04.617Z,23.46
2022-10-17T08:54:19.773Z,23.69
2022-10-17T08:56:44.504Z,23.59
2022-10-17T08:58:50.196Z,23.07
2022-10-17T09:01:28.808Z,23.83
2022-10-17T09:03:30.436Z,24.57
2022-10-17T09:05:32.052Z,24.43
2022-10-17T09:07:52.872Z,23.90
2022-10-17T09:10:03.621Z,23.83
2022-10-17T09:12:49.971Z,23.51
2022-10-17T09:15:27.839Z,22.97
2022-10-17T09:17:45.175Z,23.83
2022-10-17T09:19:52.047Z,24.22
2022-10-17T09:22:27.379Z,24.43
2022-10-17T09:24:55.659Z,25.03
2022-10-17T09:26:57.275Z,23.29
2022-10-17T09:29:00.838Z,24.31
2022-10-17T09:31:19.504Z,25.25
2022-10-17T09:33:35.174Z,24.02
2022-10-17T09:35:45.946Z,24.68
2022-10-17T09:37:49.647Z,24.88
2022-10-17T09:39:51.466Z,25.66
2022-10-17T09:41:58.760Z,25.56
2022-10-17T09:44:16.340Z,25.89
2022-10-17T09:46:36.688Z,25.76
2022-10-17T09:48:53.305Z,25.25
2022-10-17T09:51:08.319Z,25.39
2022-10-17T09:53:23.504Z,25.28
2022-10-17T09:55:39.135Z,25.61
2022-10-17T09:58:02.236Z,26.24
2022-10-17T10:00:06.345Z,25.40
2022-10-17T10:02:13.873Z,25.80
2022-10-17T10:04:17.337Z,26.08
2022-10-17T10:06:20.961Z,25.20
2022-10-17T10:08:25.440Z,25.92
2022-10-17T10:10:29.068Z,26.25
2022-10-17T10:12:36.369Z,26.19
2022-10-17T10:14:39.722Z,25.72
2022-10-17T10:16:47.128Z,25.49
2022-10-17T10:18:50.971Z,25.20
2022-10-17T10:21:17.894Z,25.30
2022-10-17T10:23:21.470Z,26.54
2022-10-17T10:25:23.103Z,25.86
2022-10-17T10:27:25.804Z,25.60
2022-10-17T10:29:44.617Z,26.43
2022-10-17T10:31:47.397Z,26.76
2022-10-17T10:33:50.900Z,25.87
2022-10-17T10:36:05.200Z,25.86
2022-10-17T10:38:18.188Z,25.84
2022-10-17T10:40:37.410Z,25.79
2022-10-17T10:42:40.483Z,26.00
2022-10-17T10:44:42.600Z,27.01
2022-10-17T10:46:44.522Z,26.66
2022-10-17T10:48:54.142Z,26.50
2022-10-17T10:50:58.341Z,25.87
2022-10-17T10:53:21.231Z,26.48
2022-10-17T10:55:40.543Z,25.79
2022-10-17T10:57:45.264Z,26.88
2022-10-17T10:59:58.436Z,27.02
2022-10-17T11:03:21.840Z,23.73
2022-10-17T11:05:23.378Z,24.59
2022-10-17T11:07:39.616Z,24.66
2022-10-17T11:10:08.274Z,24.66
2022-10-17T11:12:25.193Z,24.78
2022-10-17T11:14:48.653Z,24.66
2022-10-17T11:17:06.056Z,25.12
2022-10-17T11:19:16.304Z,24.74
2022-10-17T11:21:47.741Z,25.33
2022-10-17T11:24:00.085Z,25.51
2022-10-17T11:26:08.794Z,25.85
2022-10-17T11:28:22.705Z,25.54
2022-10-17T11:30:28.923Z,25.72
2022-10-17T11:32:48.097Z,25.14
2022-10-17T11:34:53.656Z,26.00
2022-10-17T11:37:01.931Z,25.17
2022-10-17T11:39:06.524Z,25.50
2022-10-17T11:41:17.340Z,26.23
2022-10-17T11:43:56.689Z,26.17
2022-10-17T11:46:16.166Z,25.54
2022-10-17T11:48:37.375Z,25.82
2022-10-17T11:53:09.217Z,26.45
2022-10-17T11:55:24.807Z,26.70
2022-10-17T11:57:32.827Z,26.67
2022-10-17T12:00:00.627Z,26.55
2022-10-17T12:02:06.424Z,26.10
2022-10-17T12:04:41.978Z,27.11
2022-10-17T12:07:11.143Z,27.16
2022-10-17T12:09:52.476Z,26.87
2022-10-17T12:11:57.317Z,26.84
2022-10-17T12:14:00.079Z,26.29
2022-10-17T12:16:19.683Z,26.62
2022-10-17T12:18:28.485Z,26.04
2022-10-17T12:20:33.288Z,27.14
2022-10-17T12:22:34.882Z,26.82
2022-10-17T12:24:42.744Z,27.48
2022-10-17T12:26:44.308Z,25.96
2022-10-17T12:28:48.063Z,26.37
2022-10-17T12:30:53.315Z,26.58
2022-10-17T12:33:22.689Z,26.96
2022-10-17T12:35:26.148Z,26.99
2022-10-17T12:37:45.736Z,26.97
2022-10-17T12:39:47.333Z,26.53
2022-10-17T12:41:48.904Z,27.34
2022-10-17T12:43:54.467Z,27.85
2022-10-17T12:46:05.440Z,27.93
2022-10-17T12:48:10.013Z,27.41
2022-10-17T12:50:53.807Z,28.24
2022-10-17T12:53:03.623Z,27.17
2022-10-17T12:55:11.932Z,27.74
2022-10-17T12:57:50.583Z,27.51
2022-10-17T12:59:56.628Z,27.37
2022-10-17T13:02:03.557Z,27.81
2022-10-17T13:04:08.607Z,28.04
2022-10-17T13:06:24.889Z,28.01
2022-10-17T13:08:54.862Z,27.59
2022-10-17T13:10:58.342Z,27.67
2022-10-17T13:13:17.037Z,27.68
2022-10-17T13:15:20.144Z,28.02
2022-10-17T13:17:25.683Z,28.54
2022-10-17T13:19:31.772Z,28.29
2022-10-17T13:21:33.401Z,28.50
2022-10-17T13:23:37.727Z,28.26
2022-10-17T13:25:39.726Z,28.10
2022-10-17T13:27:41.365Z,27.95
2022-10-17T13:29:44.660Z,27.90
2022-10-17T13:31:54.970Z,27.36
2022-10-17T13:33:59.351Z,28.10
2022-10-17T13:36:04.734Z,27.65
2022-10-17T13:38:09.660Z,27.94
2022-10-17T13:40:49.485Z,28.19
2022-10-17T13:42:48.893Z,28.61
2022-10-17T13:44:50.743Z,28.32
2022-10-17T13:46:52.970Z,28.55
2022-10-17T13:48:54.628Z,27.85
2022-10-17T13:51:03.046Z,28.46
2022-10-17T13:53:08.017Z,28.74
2022-10-17T13:55:17.489Z,28.54
2022-10-17T13:57:28.382Z,28.56
2022-10-17T13:59:41.937Z,28.69
2022-10-17T14:01:43.579Z,28.55
2022-10-17T14:03:49.137Z,28.25
2022-10-17T14:08:22.957Z,28.79
2022-10-17T14:10:37.492Z,28.44
2022-10-17T14:12:43.019Z,28.36
2022-10-17T14:15:10.404Z,28.54
2022-10-17T14:17:19.116Z,29.39
2022-10-17T14:19:36.948Z,28.97
2022-10-17T14:21:44.167Z,28.63
2022-10-17T14:23:46.364Z,28.07
2022-10-17T14:25:48.117Z,28.87
2022-10-17T14:28:04.033Z,28.91
2022-10-17T14:30:51.659Z,29.47
2022-10-17T14:32:48.670Z,29.37
2022-10-17T14:35:00.705Z,29.48
2022-10-17T14:37:47.694Z,29.71
2022-10-17T14:39:51.359Z,29.54
2022-10-17T14:41:53.965Z,29.94
2022-10-17T14:43:59.112Z,29.22
2022-10-17T14:46:02.095Z,29.51
2022-10-17T14:48:17.438Z,30.17
2022-10-17T14:50:25.978Z,29.11
2022-10-17T14:52:32.366Z,29.12
2022-10-17T14:54:36.343Z,29.24
2022-10-17T14:56:41.699Z,28.74
2022-10-17T14:58:43.238Z,29.33
2022-10-17T15:02:14.840Z,25.66
2022-10-17T15:04:16.952Z,26.76
2022-10-17T15:06:21.235Z,27.15
2022-10-17T15:08:24.483Z,27.78
2022-10-17T15:10:29.391Z,27.99
2022-10-17T15:12:32.774Z,27.89
2022-10-17T15:14:34.558Z,27.78
2022-10-17T15:16:37.251Z,27.51
2022-10-17T15:18:38.805Z,28.12
2022-10-17T15:20:40.582Z,28.15
2022-10-17T15:22:43.561Z,28.40
2022-10-17T15:24:46.299Z,28.42
2022-10-17T15:26:50.976Z,28.57
2022-10-17T15:28:54.054Z,28.77
2022-10-17T15:30:55.616Z,28.70
2022-10-17T15:32:57.519Z,29.14
2022-10-17T15:34:59.161Z,29.03
2022-10-17T15:37:00.934Z,29.07
2022-10-17T15:39:03.529Z,28.67
2022-10-17T15:41:05.191Z,28.94
2022-10-17T15:43:06.820Z,29.30
2022-10-17T15:45:15.169Z,29.53
2022-10-17T15:47:31.507Z,29.32
2022-10-17T15:49:34.675Z,29.32
2022-10-17T15:51:36.304Z,29.54
2022-10-17T15:53:37.995Z,29.55
2022-10-17T15:55:39.749Z,29.26
2022-10-17T15:57:43.719Z,29.18
2022-10-17T15:59:47.041Z,29.43
2022-10-17T16:01:48.783Z,29.38
2022-10-17T16:03:50.830Z,29.52
2022-10-17T16:05:53.778Z,29.36
2022-10-17T16:07:56.059Z,29.04
2022-10-17T16:09:57.672Z,29.13
2022-10-17T16:12:01.176Z,28.84
2022-10-17T16:14:10.053Z,29.24
2022-10-17T16:16:12.299Z,28.68
2022-10-17T16:18:14.189Z,29.32
2022-10-17T16:20:16.450Z,29.21
2022-10-17T16:22:36.755Z,29.48
2022-10-17T16:24:38.296Z,29.14
2022-10-17T16:26:40.466Z,29.15
2022-10-17T16:28:46.343Z,29.04
2022-10-17T16:30:49.295Z,29.05
2022-10-17T16:32:51.706Z,28.93
2022-10-17T16:34:53.249Z,29.07
2022-10-17T16:36:54.818Z,28.94
2022-10-17T16:38:56.560Z,28.94
2022-10-17T16:40:58.106Z,28.94
2022-10-17T16:43:00.138Z,29.01
2022-10-17T16:45:01.794Z,29.27
2022-10-17T16:47:06.265Z,29.26
2022-10-17T16:49:08.151Z,29.03
2022-10-17T16:51:11.251Z,28.65
2022-10-17T16:53:13.011Z,28.64
2022-10-17T16:55:15.050Z,28.69
2022-10-17T16:57:16.720Z,29.05
2022-10-17T16:59:18.249Z,29.11
2022-10-17T17:01:23.329Z,29.20
2022-10-17T17:03:24.876Z,28.98
2022-10-17T17:05:26.535Z,28.97
2022-10-17T17:07:29.734Z,29.11
2022-10-17T17:09:31.774Z,29.11
2022-10-17T17:11:33.305Z,28.99
2022-10-17T17:13:35.219Z,28.83
2022-10-17T17:15:38.416Z,28.96
2022-10-17T17:17:55.870Z,28.90
2022-10-17T17:19:57.888Z,28.16
2022-10-17T17:21:59.410Z,28.53
2022-10-17T17:24:02.528Z,28.39
2022-10-17T17:26:13.361Z,28.33
2022-10-17T17:28:14.884Z,28.89
2022-10-17T17:30:16.616Z,28.97
2022-10-17T17:32:18.150Z,28.47
2022-10-17T17:34:19.756Z,28.41
2022-10-17T17:36:27.874Z,28.82
2022-10-17T17:38:30.952Z,28.51
2022-10-17T17:40:34.512Z,28.23
2022-10-17T17:42:36.043Z,28.37
2022-10-17T17:44:37.683Z,28.11
2022-10-17T17:46:39.508Z,28.03
2022-10-17T17:48:42.111Z,28.11
2022-10-17T17:50:44.234Z,28.02
2022-10-17T17:52:48.843Z,27.86
2022-10-17T17:54:50.486Z,27.70
2022-10-17T17:56:52.078Z,27.50
2022-10-17T17:59:03.101Z,27.02
2022-10-17T18:01:18.918Z,27.42
2022-10-17T18:03:20.551Z,27.69
2022-10-17T18:05:22.205Z,27.92
2022-10-17T18:07:24.514Z,28.21
2022-10-17T18:09:26.051Z,28.12
2022-10-17T18:11:28.648Z,28.05
2022-10-17T18:13:30.342Z,27.86
2022-10-17T18:15:31.985Z,27.87
2022-10-17T18:17:34.103Z,27.85
2022-10-17T18:19:35.864Z,27.40
2022-10-17T18:21:38.002Z,27.60
2022-10-17T18:23:41.041Z,27.81
2022-10-17T18:25:42.695Z,28.03
2022-10-17T18:27:44.303Z,28.08
2022-10-17T18:29:46.248Z,27.96
2022-10-17T18:31:47.836Z,27.40
2022-10-17T18:33:52.594Z,25.96
2022-10-17T18:35:58.104Z,22.73
2022-10-17T18:37:59.936Z,24.53
2022-10-17T18:40:03.203Z,25.17
2022-10-17T18:42:05.827Z,24.17
2022-10-17T18:44:07.368Z,26.13
2022-10-17T18:46:15.061Z,26.15
2022-10-17T18:48:16.776Z,26.89
2022-10-17T18:50:22.962Z,26.00
2022-10-17T18:52:24.859Z,25.64
2022-10-17T18:54:26.458Z,26.36
2022-10-17T18:56:28.595Z,26.52
2022-10-17T18:58:30.238Z,26.46
2022-10-17T19:00:31.827Z,26.79
2022-10-17T19:02:35.671Z,26.60
2022-10-17T19:04:40.263Z,26.63
2022-10-17T19:06:42.568Z,26.71
2022-10-17T19:08:45.296Z,26.71
2022-10-17T19:10:46.899Z,26.36
2022-10-17T19:12:48.540Z,26.69
2022-10-17T19:14:50.907Z,26.55
2022-10-17T19:16:52.845Z,26.48
2022-10-17T19:18:59.085Z,26.68
2022-10-17T19:21:11.185Z,26.54
2022-10-17T19:23:12.833Z,26.37
2022-10-17T19:25:15.539Z,26.60
2022-10-17T19:27:17.213Z,26.80
2022-10-17T19:29:19.709Z,26.58
2022-10-17T19:31:26.818Z,26.67
2022-10-17T19:35:35.995Z,26.87
2022-10-17T19:37:37.991Z,27.09
2022-10-17T19:39:39.624Z,25.64
2022-10-17T19:41:45.931Z,25.70
2022-10-17T19:43:47.499Z,25.78
2022-10-17T19:46:00.802Z,27.04
2022-10-17T19:48:02.431Z,26.99
2022-10-17T19:50:04.819Z,26.93
2022-10-17T19:59:21.961Z,26.82
2022-10-17T20:01:26.443Z,26.75
2022-10-17T20:03:30.066Z,26.47
2022-10-17T20:05:31.620Z,25.85
2022-10-17T20:07:33.254Z,26.02
2022-10-17T20:09:34.829Z,25.76
